createdAt,value
2023-03-23T16:01:18.349Z,58.07
2023-03-23T16:06:25.136Z,58.43
2023-03-23T16:11:31.227Z,58.97
2023-03-23T16:16:38.447Z,58.35
2023-03-23T16:21:41.987Z,58.41
2023-03-23T16:26:44.878Z,58.62
2023-03-23T16:31:49.537Z,59.38
2023-03-23T16:36:52.556Z,60.00
2023-03-23T16:41:55.509Z,61.86
2023-03-23T16:46:59.813Z,64.12
2023-03-23T16:52:02.740Z,65.00
2023-03-23T16:57:06.529Z,65.39
2023-03-23T17:02:12.480Z,65.08
2023-03-23T17:07:15.970Z,65.39
2023-03-23T17:12:19.197Z,66.79
2023-03-23T17:17:24.392Z,66.02
2023-03-23T17:22:27.568Z,66.02
2023-03-23T17:27:30.810Z,67.58
2023-03-23T17:32:36.642Z,68.52
2023-03-23T17:37:39.649Z,70.39
2023-03-23T17:42:42.700Z,71.23
2023-03-23T17:47:47.058Z,73.29
2023-03-23T17:52:50.448Z,74.16
2023-03-23T17:57:53.396Z,74.91
2023-03-23T18:02:57.672Z,77.14
2023-03-23T18:08:00.867Z,78.80
2023-03-23T18:13:03.919Z,79.80
2023-03-23T18:18:08.185Z,81.32
2023-03-23T18:23:11.314Z,80.65
2023-03-23T18:28:14.223Z,79.82
2023-03-23T18:33:20.376Z,80.23
2023-03-23T18:38:23.398Z,80.36
2023-03-23T18:43:26.378Z,80.27
2023-03-23T18:48:30.662Z,80.72
2023-03-23T18:53:33.777Z,80.38
2023-03-23T18:58:37.733Z,80.25
2023-03-23T19:03:42.328Z,80.34
2023-03-23T19:08:45.991Z,80.05
2023-03-23T19:14:00.376Z,80.12
2023-03-23T19:19:07.777Z,80.18
2023-03-23T19:24:11.218Z,80.07
2023-03-23T19:34:24.535Z,80.96
2023-03-23T19:39:27.974Z,81.85
2023-03-23T19:44:30.879Z,81.22
2023-03-23T19:49:35.194Z,82.21
2023-03-23T19:54:38.715Z,82.14
2023-03-23T19:59:42.254Z,82.60
2023-03-23T20:04:46.947Z,82.88
2023-03-23T20:09:50.032Z,82.99
2023-03-23T20:14:53.192Z,83.11
2023-03-23T20:19:57.899Z,83.67
2023-03-23T20:25:01.056Z,83.51
2023-03-23T20:30:06.189Z,82.65
2023-03-23T20:35:13.118Z,82.26
2023-03-23T20:40:16.000Z,82.60
2023-03-23T20:45:20.177Z,80.68
2023-03-23T20:50:24.480Z,78.25
2023-03-23T20:55:27.813Z,77.90
2023-03-23T21:00:30.797Z,77.40
2023-03-23T21:05:35.467Z,76.90
2023-03-23T21:10:39.421Z,76.69
2023-03-23T21:15:43.242Z,76.15
2023-03-23T21:20:47.917Z,75.96
2023-03-23T21:25:50.882Z,76.00
2023-03-23T21:30:54.697Z,75.65
2023-03-23T21:36:00.433Z,75.62
2023-03-23T21:41:08.996Z,75.70
2023-03-23T21:46:14.038Z,75.06
2023-03-23T21:51:21.171Z,75.79
2023-03-23T21:56:27.236Z,74.76
2023-03-23T22:01:30.526Z,75.48
2023-03-23T22:06:35.301Z,75.25
2023-03-23T22:11:39.968Z,75.29
2023-03-23T22:16:43.134Z,75.38
2023-03-23T22:21:47.638Z,75.11
2023-03-23T22:26:50.947Z,75.07
2023-03-23T22:31:54.066Z,75.08
2023-03-23T22:36:58.372Z,75.62
2023-03-23T22:42:01.463Z,76.01
2023-03-23T22:47:04.466Z,76.48
2023-03-23T22:52:08.824Z,77.00
2023-03-23T22:57:11.919Z,77.96
2023-03-23T23:02:14.984Z,78.43
2023-03-23T23:07:19.359Z,78.98
2023-03-23T23:12:22.405Z,79.08
2023-03-23T23:17:26.572Z,79.81
2023-03-23T23:22:31.308Z,79.64
2023-03-23T23:27:34.929Z,80.27
2023-03-23T23:32:38.133Z,81.02
2023-03-23T23:37:42.490Z,81.41
2023-03-23T23:42:46.996Z,81.92
2023-03-23T23:47:50.438Z,82.50
2023-03-23T23:52:55.067Z,82.38
2023-03-23T23:57:57.976Z,82.07
